Airfield :
LOGIN :

Register | Disclaimer

   EN    FR    IT 

 










Legend :    VFR   Marginal VFR   IFR   Intensive IFR   Very Intensive IFR
Visi :
Ceiling :
>= 8 km
>= 3000ft
5 to 8 km
1000 to 3000 ft
1500m to 5 km
500 to 1000 ft
800 to 1500m
200 to 500 ft
< 800m
< 200 ft
Symbols :   Thunderstorms  Fog  Heavy snow  Heavy precipitations  Wind > 20 kt
SIGMETs :     Misc.  Thunderstorms  Icing  Turbulence  Mountain Waves  Volcanic Ashes







- Airport Elevation : 33 ft
- IATA code : MHZ


EGUN - RAF Mildenhall

CURRENT METAR :
  • 202122Z AUTO 03006KT 9999 -RA BKN034 04/04 A2971 RMK AO2 RAE04RAB08E18RAB22 SLP064 $

EXPIRED METARs :
  • 202108Z AUTO 04006KT 9999 -RA OVC032 04/04 A2972 RMK AO2 RAE04RAB08 SLP068 $
  • 202040Z AUTO 04008KT 9999 -RA FEW028 BKN036 04/04 A2972 RMK AO2 RAE06RAB40 SLP068 $
  • 202006Z AUTO 03008KT 9999 OVC032 04/04 A2973 RMK AO2 RAE06 SLP071 $
  • 201929Z AUTO 03009KT 9999 -RA OVC034 04/04 A2973 RMK AO2 RAB29 SLP071 $
  • 201856Z AUTO 04008KT 9999 OVC033 04/04 A2973 RMK AO2 SLP071 T00410041 $

TAF TAF EGUN
Valid from the 20 at 20:00 until the 22 at 02:00 UTC


202000Z 2020/2202 04012KT 9000 -RA FEW015 BKN030 QNH2971INS
TEMPO 2020/2022 04012G20KT BKN015
BECMG 2021/2022 06009KT 9000 -RA BKN010 QNH2967INS
TEMPO 2022/2105 BKN008
BECMG 2104/2105 12009KT 9999 NSW BKN010 QNH2971INS
BECMG 2109/2110 14009KT 9999 SCT020 QNH2988INS
TEMPO 2110/2112 14012G20KT
BECMG 2200/2201 05006KT 8000 -RA BKN010 QNH3005INS TX06/2113Z TN02/2120Z
No reported NOTAMs for that airfield.
2 SIGMETs reported for the London FIR (EGTT) :
 
Severe mountain waves
EGTT SIGMET 04 VALID 202100/210100 EGRR
EGTT LONDON FIR SEV MTW FCST WI N5355 W00132 - N5232 W00304 - N5221 W00530 - N5500 W00530 - N5500 W00159 - N5355 W00132 FL030/120 MOV N 05KT NC=
Severe mountain waves
EGTT SIGMET 03 VALID 201700/202100 EGRR
EGTT LONDON FIR SEV MTW FCST WI N5500 W00220 - N5322 W00134 - N5158 W00304 - N5149 W00510 - N5500 W00447 - N5500 W00220 FL030/120 MOV N 10KT NC=



MET'MAP, your aeronautical weather chart ! - Copyright ORBIFLY December 2007 - Disclaimer

ORBIFLY MET'MAP TEAM :

Programming & Development : Alexandra Zaïnal
Concept & Development : Baudouin d'Aumeries
Co-Development & Prog : Marc-Olivier Méhu
Technical & hardware support : Manuel Goepfert

Contact : metmap@orbifly.com




SOURCES & CREDITS :

   NOAA